Terminal Aerodrome Forecast
Issued by NWS Grand Forks, ND

Home | Current Version | Previous Version | Text Only | Print | Product List | Glossary On
Versions: 1 2 3 4 5 6 7 8 9 10 11 12 13 14 15 16 17 18 19 20 21
000
FTUS43 KFGF 242007 AAB
TAFFAR
TAF AMD
KFAR 242007Z 2420/2518 36014KT P6SM OVC090
      TEMPO 2420/2422 -RA
     FM242300 32012KT P6SM OVC025
     FM250600 32012KT P6SM OVC003=

USA.gov is the U.S. government's official web portal to all federal, state and local government web resources and services.